createdAt,value
2019-05-19T00:00:16.179Z,13.00
2019-05-19T00:01:20.402Z,15.75
2019-05-19T00:02:27.220Z,15.75
2019-05-19T00:03:33.117Z,13.50
2019-05-19T00:04:36.425Z,15.75
2019-05-19T00:05:39.791Z,16.00
2019-05-19T00:06:42.799Z,15.75
2019-05-19T00:07:46.939Z,15.25
2019-05-19T00:08:49.793Z,17.00
2019-05-19T00:09:53.738Z,17.00
2019-05-19T00:11:00.877Z,16.50
2019-05-19T00:12:04.419Z,16.25
2019-05-19T00:13:07.740Z,17.25
2019-05-19T00:14:12.961Z,16.50
2019-05-19T00:15:17.826Z,15.75
2019-05-19T00:16:21.488Z,17.75
2019-05-19T00:17:24.344Z,16.00
2019-05-19T00:18:27.777Z,16.00
2019-05-19T00:19:30.603Z,16.00
2019-05-19T00:20:36.767Z,17.00
2019-05-19T00:21:39.615Z,15.50
2019-05-19T00:22:43.393Z,15.75
2019-05-19T00:23:49.384Z,15.50
2019-05-19T00:24:52.739Z,17.00
2019-05-19T00:25:55.681Z,18.25
2019-05-19T00:26:59.119Z,14.00
2019-05-19T00:28:01.947Z,15.50
2019-05-19T00:29:05.878Z,14.50
2019-05-19T00:30:11.154Z,14.50
2019-05-19T00:31:14.524Z,14.00
2019-05-19T00:32:17.396Z,15.00
2019-05-19T00:33:20.847Z,14.50
2019-05-19T00:34:23.668Z,14.00
2019-05-19T00:35:28.542Z,15.00
2019-05-19T00:36:32.741Z,16.75
2019-05-19T00:37:36.200Z,15.00
2019-05-19T00:38:39.061Z,15.50
2019-05-19T00:39:42.424Z,14.50
2019-05-19T00:40:45.722Z,15.00
2019-05-19T00:41:49.654Z,14.00
2019-05-19T00:42:52.452Z,14.00
2019-05-19T00:43:58.630Z,16.25
2019-05-19T00:45:01.438Z,13.50
2019-05-19T00:46:05.301Z,16.50
2019-05-19T00:47:08.247Z,16.00
2019-05-19T00:48:11.991Z,16.00
2019-05-19T00:49:14.877Z,16.50
2019-05-19T00:50:18.275Z,16.00
2019-05-19T00:51:21.054Z,19.50
2019-05-19T00:52:24.444Z,22.00
2019-05-19T00:53:27.293Z,25.00
2019-05-19T00:54:32.594Z,23.75
2019-05-19T00:55:35.413Z,21.75
2019-05-19T00:56:38.757Z,16.50
2019-05-19T00:57:41.593Z,17.50
2019-05-19T00:58:46.060Z,16.75
2019-05-19T00:59:48.855Z,16.25
2019-05-19T01:00:53.080Z,16.75
2019-05-19T01:01:55.876Z,16.00
2019-05-19T01:02:59.231Z,13.25
2019-05-19T01:04:02.077Z,16.00
2019-05-19T01:05:05.878Z,14.25
2019-05-19T01:06:08.795Z,13.75
2019-05-19T01:07:12.711Z,17.00
2019-05-19T01:08:15.576Z,16.00
2019-05-19T01:09:18.991Z,14.00
2019-05-19T01:10:21.844Z,15.25
2019-05-19T01:11:25.196Z,16.75
2019-05-19T01:12:28.017Z,18.00
2019-05-19T01:13:31.897Z,15.25
2019-05-19T01:14:34.719Z,16.00
2019-05-19T01:15:38.158Z,16.50
2019-05-19T01:16:41.403Z,15.50
2019-05-19T01:17:44.750Z,16.50
2019-05-19T01:18:48.664Z,14.75
2019-05-19T01:19:56.141Z,15.25
2019-05-19T01:20:57.078Z,14.75
2019-05-19T01:22:00.802Z,15.00
2019-05-19T01:23:03.623Z,16.00
2019-05-19T01:24:07.082Z,17.75
2019-05-19T01:25:09.895Z,19.00
2019-05-19T01:26:15.096Z,15.50
2019-05-19T01:27:18.330Z,16.50
2019-05-19T01:28:21.733Z,15.75
2019-05-19T01:29:24.641Z,17.25
2019-05-19T01:30:29.359Z,16.00
2019-05-19T01:31:32.246Z,17.25
2019-05-19T01:32:36.070Z,15.25
2019-05-19T01:33:38.895Z,14.75
2019-05-19T01:34:42.314Z,13.25
2019-05-19T01:35:45.117Z,14.75
2019-05-19T01:36:48.548Z,16.00
2019-05-19T01:37:54.439Z,14.75
2019-05-19T01:38:58.160Z,17.75
2019-05-19T01:40:07.059Z,16.75
2019-05-19T01:41:10.423Z,15.50
2019-05-19T01:42:16.049Z,16.00
2019-05-19T01:43:19.401Z,15.50
2019-05-19T01:44:22.219Z,15.50
2019-05-19T01:45:25.603Z,17.00
2019-05-19T01:46:28.914Z,18.25
2019-05-19T01:47:32.303Z,16.00
2019-05-19T01:48:36.465Z,17.25
2019-05-19T01:49:40.253Z,15.00
2019-05-19T01:51:32.415Z,17.00
2019-05-19T01:51:50.058Z,14.00
2019-05-19T01:52:54.794Z,14.75
2019-05-19T01:53:58.142Z,16.00
2019-05-19T01:55:01.498Z,16.50
2019-05-19T01:56:04.934Z,16.00
2019-05-19T01:57:07.766Z,16.00
2019-05-19T01:58:11.680Z,13.00
2019-05-19T01:59:14.520Z,15.00
2019-05-19T02:00:17.987Z,14.75
2019-05-19T02:01:21.166Z,16.00
2019-05-19T02:02:25.035Z,15.25
2019-05-19T02:03:29.810Z,16.00
2019-05-19T02:04:33.345Z,14.25
2019-05-19T02:05:39.025Z,14.75
2019-05-19T02:06:42.424Z,15.50
2019-05-19T02:07:45.247Z,16.50
2019-05-19T02:08:51.111Z,16.75
2019-05-19T02:09:54.495Z,16.00
2019-05-19T02:10:58.410Z,16.50
2019-05-19T02:12:04.246Z,14.75
2019-05-19T02:13:14.185Z,14.75
2019-05-19T02:14:17.421Z,16.00
2019-05-19T02:15:23.583Z,15.50
2019-05-19T02:16:27.827Z,13.75
2019-05-19T02:17:31.551Z,12.50
2019-05-19T02:18:34.453Z,14.75
2019-05-19T02:19:38.846Z,15.75
2019-05-19T02:20:41.747Z,13.50
2019-05-19T02:22:08.100Z,15.00
2019-05-19T02:23:11.436Z,13.25
2019-05-19T02:24:15.219Z,13.00
2019-05-19T02:25:18.085Z,15.00
2019-05-19T02:26:21.434Z,13.00
2019-05-19T02:27:24.260Z,15.00
2019-05-19T02:28:27.682Z,15.50
2019-05-19T02:29:33.537Z,15.75
2019-05-19T02:30:38.374Z,15.50
2019-05-19T02:31:41.988Z,13.00
2019-05-19T02:32:45.438Z,15.75
2019-05-19T02:33:48.272Z,14.50
2019-05-19T02:34:51.879Z,15.00
2019-05-19T02:35:54.873Z,14.50
2019-05-19T02:36:58.737Z,14.00
2019-05-19T02:38:01.544Z,13.00
2019-05-19T02:39:06.709Z,14.50
2019-05-19T02:40:09.559Z,15.25
2019-05-19T02:41:13.013Z,16.25
2019-05-19T02:42:16.264Z,14.25
2019-05-19T02:43:19.717Z,15.00
2019-05-19T02:44:23.828Z,15.00
2019-05-19T02:45:27.272Z,15.00
2019-05-19T02:46:32.942Z,10.50
2019-05-19T02:47:36.354Z,15.50
2019-05-19T02:48:39.657Z,11.75
2019-05-19T02:49:43.049Z,13.00
2019-05-19T02:50:52.186Z,15.00
2019-05-19T02:51:51.234Z,15.00
2019-05-19T02:52:54.090Z,15.25
2019-05-19T02:53:57.529Z,14.50
2019-05-19T02:55:00.932Z,14.50
2019-05-19T02:56:04.502Z,14.00
2019-05-19T02:57:07.337Z,13.00
2019-05-19T02:58:10.789Z,15.00
2019-05-19T02:59:13.627Z,15.00
2019-05-19T03:00:17.034Z,15.25
2019-05-19T03:01:20.325Z,16.00
2019-05-19T03:02:23.968Z,13.00
2019-05-19T03:03:26.861Z,12.25
2019-05-19T03:04:30.339Z,13.00
2019-05-19T03:05:33.272Z,13.50
2019-05-19T03:06:36.744Z,12.75
2019-05-19T03:07:39.983Z,12.00
2019-05-19T03:08:43.671Z,15.00
2019-05-19T03:09:46.600Z,12.50
2019-05-19T03:10:50.067Z,15.00
2019-05-19T03:11:53.171Z,12.00
2019-05-19T03:12:58.830Z,11.50
2019-05-19T03:14:02.916Z,13.00
2019-05-19T03:15:06.419Z,12.25
2019-05-19T03:16:09.389Z,15.00
2019-05-19T03:17:12.841Z,13.00
2019-05-19T03:18:16.272Z,15.25
2019-05-19T03:19:21.760Z,13.00
2019-05-19T03:20:25.086Z,15.25
2019-05-19T03:21:28.546Z,12.50
2019-05-19T03:22:34.605Z,15.50
2019-05-19T03:23:41.195Z,13.75
2019-05-19T03:24:44.071Z,14.50
2019-05-19T03:25:47.460Z,12.00
2019-05-19T03:26:50.338Z,13.00
2019-05-19T03:27:54.146Z,13.00
2019-05-19T03:28:58.322Z,12.50
2019-05-19T03:30:20.461Z,13.00
2019-05-19T03:31:45.617Z,12.00
2019-05-19T03:32:53.189Z,14.00
2019-05-19T03:33:59.143Z,13.50
2019-05-19T03:35:02.098Z,12.00
2019-05-19T03:36:07.584Z,14.25
2019-05-19T03:38:48.481Z,13.00
2019-05-19T03:39:51.988Z,11.00
2019-05-19T03:40:54.886Z,14.50
2019-05-19T03:41:58.348Z,10.50
2019-05-19T03:43:01.203Z,13.75
2019-05-19T03:44:04.636Z,13.25
2019-05-19T03:45:07.803Z,13.25
2019-05-19T03:46:11.395Z,12.00
2019-05-19T03:47:14.264Z,12.75
2019-05-19T03:48:17.830Z,15.50
2019-05-19T03:49:20.669Z,15.00
2019-05-19T03:50:24.538Z,12.00
2019-05-19T03:51:31.358Z,12.25
2019-05-19T03:52:32.912Z,14.25
2019-05-19T03:53:35.821Z,12.00
2019-05-19T03:54:39.263Z,15.00
2019-05-19T03:55:42.070Z,11.00
2019-05-19T03:56:45.538Z,12.25
2019-05-19T03:57:50.600Z,11.50
2019-05-19T03:58:55.189Z,12.25
2019-05-19T03:59:58.120Z,12.25
2019-05-19T04:01:01.497Z,12.25
2019-05-19T04:02:04.342Z,12.50
2019-05-19T04:03:07.774Z,11.50
2019-05-19T04:04:11.003Z,12.50
2019-05-19T04:05:14.369Z,12.75
2019-05-19T04:06:17.173Z,13.00
2019-05-19T04:07:20.662Z,15.25
2019-05-19T04:08:23.692Z,15.50
2019-05-19T04:09:27.179Z,13.00
2019-05-19T04:10:30.580Z,14.50
2019-05-19T04:11:34.210Z,14.50
2019-05-19T04:12:43.282Z,12.50
2019-05-19T04:13:42.683Z,12.75
2019-05-19T04:14:45.649Z,13.00
2019-05-19T04:16:19.349Z,13.50
2019-05-19T04:16:53.980Z,12.75
2019-05-19T04:17:57.414Z,10.00
2019-05-19T04:19:00.218Z,13.00
2019-05-19T04:20:03.646Z,13.50
2019-05-19T04:21:06.468Z,13.00
2019-05-19T04:22:09.825Z,12.50
2019-05-19T04:23:13.113Z,13.00
2019-05-19T04:24:16.725Z,15.00
2019-05-19T04:25:19.612Z,13.00
2019-05-19T04:26:22.989Z,15.25
2019-05-19T04:27:25.825Z,16.50
2019-05-19T04:28:29.168Z,12.50
2019-05-19T04:29:32.544Z,14.50
2019-05-19T04:30:36.006Z,13.50
2019-05-19T04:31:38.967Z,12.00
2019-05-19T04:32:42.352Z,13.00
2019-05-19T04:33:45.258Z,13.00
2019-05-19T04:34:50.847Z,12.00
2019-05-19T04:35:57.557Z,12.50
2019-05-19T04:36:59.040Z,11.75
2019-05-19T04:38:02.447Z,13.00
2019-05-19T04:39:07.506Z,12.50
2019-05-19T04:40:10.409Z,12.50
2019-05-19T04:41:14.103Z,12.00
2019-05-19T04:42:17.431Z,15.50
2019-05-19T04:43:20.888Z,12.75
2019-05-19T04:44:23.710Z,12.25
2019-05-19T04:45:27.084Z,13.00
2019-05-19T04:46:29.940Z,15.00
2019-05-19T04:47:33.368Z,15.25
2019-05-19T04:48:36.246Z,13.50
2019-05-19T04:49:39.733Z,16.50
2019-05-19T04:50:42.951Z,18.75
2019-05-19T04:51:46.351Z,15.75
2019-05-19T04:52:49.199Z,16.00
2019-05-19T04:53:54.882Z,14.50
2019-05-19T04:54:59.951Z,12.50
2019-05-19T04:56:03.356Z,16.25
2019-05-19T04:57:06.572Z,14.00
2019-05-19T04:58:10.033Z,15.25
2019-05-19T04:59:12.937Z,15.00
2019-05-19T05:00:16.718Z,15.00
2019-05-19T05:01:19.633Z,13.00
2019-05-19T05:02:23.058Z,14.50
2019-05-19T05:03:28.296Z,15.25
2019-05-19T05:04:34.276Z,15.00
2019-05-19T05:05:37.094Z,15.00
2019-05-19T05:06:40.899Z,12.50
2019-05-19T05:07:43.702Z,12.50
2019-05-19T05:08:47.134Z,12.75
2019-05-19T05:09:50.316Z,13.00
2019-05-19T05:10:54.284Z,14.75
2019-05-19T05:11:57.105Z,18.25
2019-05-19T05:13:00.900Z,15.25
2019-05-19T05:14:03.821Z,15.00
2019-05-19T05:15:07.174Z,13.75
2019-05-19T05:16:13.043Z,15.00
2019-05-19T05:17:16.423Z,13.00
2019-05-19T05:18:19.250Z,15.75
2019-05-19T05:19:27.859Z,16.75
2019-05-19T05:20:30.796Z,13.00
2019-05-19T05:21:34.276Z,16.00
2019-05-19T05:22:37.383Z,13.50
2019-05-19T05:23:40.806Z,14.25
2019-05-19T05:24:43.649Z,13.25
2019-05-19T05:25:48.199Z,14.25
2019-05-19T05:26:51.007Z,13.00
2019-05-19T05:27:54.381Z,13.25
2019-05-19T05:28:57.238Z,13.00
2019-05-19T05:30:00.644Z,12.50
2019-05-19T05:44:07.899Z,16.00
2019-05-19T05:45:11.399Z,12.75
2019-05-19T05:46:14.199Z,12.25
2019-05-19T05:47:21.463Z,16.50
2019-05-19T05:48:25.310Z,15.25
2019-05-19T05:49:31.906Z,15.25
2019-05-19T05:50:35.779Z,14.75
2019-05-19T05:51:39.280Z,13.50
2019-05-19T05:52:47.021Z,15.00
2019-05-19T05:53:50.400Z,14.75
2019-05-19T05:54:55.658Z,13.75
2019-05-19T05:55:59.424Z,16.25
2019-05-19T05:57:02.324Z,15.50
2019-05-19T05:58:05.685Z,14.50
2019-05-19T05:59:11.984Z,14.75
2019-05-19T06:00:21.354Z,13.00
2019-05-19T06:01:26.947Z,14.00
2019-05-19T06:02:30.394Z,13.50
2019-05-19T06:03:33.216Z,16.75
2019-05-19T06:04:36.568Z,14.50
2019-05-19T06:05:39.529Z,14.25
2019-05-19T06:06:45.784Z,15.75
2019-05-19T06:07:48.350Z,16.75
2019-05-19T06:08:54.158Z,16.75
2019-05-19T06:09:58.357Z,16.75
2019-05-19T06:11:03.431Z,17.50
2019-05-19T06:12:07.667Z,16.00
2019-05-19T06:13:14.064Z,16.00
2019-05-19T06:14:17.318Z,15.00
2019-05-19T06:15:21.933Z,16.75
2019-05-19T06:16:26.061Z,16.25
2019-05-19T06:17:29.528Z,16.75
2019-05-19T06:18:35.342Z,16.00
2019-05-19T06:19:38.792Z,17.00
2019-05-19T06:20:44.993Z,16.00
2019-05-19T06:21:48.414Z,17.50
2019-05-19T06:22:56.996Z,17.00
2019-05-19T06:23:59.831Z,16.75
2019-05-19T06:25:02.723Z,16.00
2019-05-19T06:26:06.354Z,18.00
2019-05-19T06:27:09.607Z,16.75
2019-05-19T06:28:13.468Z,17.00
2019-05-19T06:29:21.722Z,18.75
2019-05-19T06:30:25.168Z,18.00
2019-05-19T06:31:28.209Z,17.25
2019-05-19T06:32:52.079Z,16.00
2019-05-19T06:33:54.949Z,18.75
2019-05-19T06:34:58.597Z,19.25
2019-05-19T06:36:01.539Z,19.25
2019-05-19T06:37:05.104Z,19.00
2019-05-19T06:38:08.554Z,16.50
2019-05-19T06:39:12.524Z,16.00
2019-05-19T06:40:15.908Z,17.00
2019-05-19T06:41:20.663Z,16.00
2019-05-19T06:42:26.648Z,16.00
2019-05-19T06:43:31.178Z,14.50
2019-05-19T06:44:38.781Z,15.50
2019-05-19T06:45:49.948Z,16.00
2019-05-19T06:46:52.806Z,16.25
2019-05-19T06:47:56.363Z,16.00
2019-05-19T06:48:59.596Z,16.25
2019-05-19T06:50:02.992Z,14.00
2019-05-19T06:52:33.397Z,16.00
2019-05-19T06:53:38.514Z,14.50
2019-05-19T06:54:41.923Z,19.00
2019-05-19T06:55:44.773Z,16.50
2019-05-19T06:56:48.167Z,15.00
2019-05-19T06:57:51.501Z,14.00
2019-05-19T06:58:54.957Z,15.50
2019-05-19T06:59:57.787Z,17.00
2019-05-19T07:01:01.186Z,16.50
2019-05-19T07:02:04.004Z,14.50
2019-05-19T07:03:07.455Z,16.00
2019-05-19T07:04:10.918Z,11.75
2019-05-19T07:05:14.330Z,13.50
2019-05-19T07:06:17.160Z,14.25
2019-05-19T07:07:20.749Z,15.00
2019-05-19T07:08:23.586Z,14.00
2019-05-19T07:09:30.039Z,13.50
2019-05-19T07:10:33.432Z,14.25
2019-05-19T07:11:38.267Z,14.75
2019-05-19T07:12:41.179Z,14.00
2019-05-19T07:13:44.612Z,12.50
2019-05-19T07:14:47.449Z,15.00
2019-05-19T07:15:57.384Z,13.50
2019-05-19T07:17:00.623Z,13.50
2019-05-19T07:18:04.090Z,12.50
2019-05-19T07:19:06.895Z,13.00
2019-05-19T07:20:10.320Z,13.50
2019-05-19T07:21:13.144Z,15.00
2019-05-19T07:22:18.437Z,14.75
2019-05-19T07:23:28.194Z,15.00
2019-05-19T07:24:31.106Z,15.75
2019-05-19T07:25:33.978Z,13.50
2019-05-19T07:26:38.315Z,13.75
2019-05-19T07:27:43.929Z,15.00
2019-05-19T07:28:47.302Z,14.75
2019-05-19T07:29:54.705Z,14.50
2019-05-19T07:30:58.105Z,12.00
2019-05-19T07:32:00.928Z,16.75
2019-05-19T07:33:04.580Z,14.00
2019-05-19T07:34:07.368Z,12.75
2019-05-19T07:35:10.813Z,14.00
2019-05-19T07:36:14.077Z,17.25
2019-05-19T07:37:17.644Z,14.50
2019-05-19T07:38:20.600Z,14.25
2019-05-19T07:39:24.027Z,13.75
2019-05-19T07:40:27.097Z,15.00
2019-05-19T07:41:30.565Z,14.75
2019-05-19T07:42:36.967Z,13.50
2019-05-19T07:43:40.581Z,12.50
2019-05-19T07:44:49.003Z,13.50
2019-05-19T07:45:52.445Z,13.75
2019-05-19T07:46:55.670Z,14.50
2019-05-19T07:47:59.199Z,12.75
2019-05-19T07:49:03.649Z,12.50
2019-05-19T07:50:10.286Z,10.75
2019-05-19T07:51:15.319Z,12.00
2019-05-19T07:52:20.309Z,11.50
2019-05-19T07:53:23.176Z,14.75
2019-05-19T07:54:29.026Z,12.50
2019-05-19T07:55:32.214Z,13.00
2019-05-19T07:56:37.833Z,13.50
2019-05-19T07:57:40.652Z,13.00
2019-05-19T07:59:03.199Z,12.00
2019-05-19T08:00:06.146Z,13.00
2019-05-19T08:01:15.338Z,13.00
2019-05-19T08:02:19.824Z,13.50
2019-05-19T08:03:23.237Z,13.25
2019-05-19T08:04:26.644Z,14.00
2019-05-19T08:05:32.844Z,13.50
2019-05-19T08:06:35.690Z,13.00
2019-05-19T08:07:39.570Z,13.00
2019-05-19T08:08:43.176Z,13.00
2019-05-19T08:09:49.812Z,12.25
2019-05-19T08:10:52.684Z,12.50
2019-05-19T08:11:56.160Z,14.00
2019-05-19T08:12:59.061Z,13.50
2019-05-19T08:14:02.849Z,14.00
2019-05-19T08:15:05.726Z,11.00
2019-05-19T08:16:10.078Z,13.25
2019-05-19T08:17:13.404Z,14.50
2019-05-19T08:18:36.266Z,13.50
2019-05-19T08:19:30.584Z,14.00
2019-05-19T08:20:37.921Z,11.00
2019-05-19T08:21:40.730Z,12.50
2019-05-19T08:22:44.195Z,11.75
2019-05-19T08:23:59.757Z,11.00
2019-05-19T08:24:53.238Z,11.50
2019-05-19T08:26:01.397Z,12.00
2019-05-19T08:27:04.810Z,12.00
2019-05-19T08:28:09.114Z,11.25
2019-05-19T08:29:16.268Z,11.75
2019-05-19T08:30:19.455Z,14.00
2019-05-19T08:31:26.247Z,10.50
2019-05-19T08:32:29.077Z,12.75
2019-05-19T08:33:32.501Z,12.00
2019-05-19T08:34:38.187Z,11.25
2019-05-19T08:35:41.548Z,11.25
2019-05-19T08:36:46.385Z,12.00
2019-05-19T08:37:50.937Z,11.75
2019-05-19T08:38:56.594Z,12.00
2019-05-19T08:40:00.148Z,11.00
2019-05-19T08:41:06.005Z,11.00
2019-05-19T08:42:09.766Z,10.50
2019-05-19T08:43:12.612Z,10.00
2019-05-19T08:44:16.623Z,11.75
2019-05-19T08:45:19.431Z,11.75
2019-05-19T08:46:22.940Z,11.75
2019-05-19T08:47:25.772Z,10.75
2019-05-19T08:48:29.250Z,11.25
2019-05-19T08:49:32.178Z,10.00
2019-05-19T08:50:37.457Z,11.00
2019-05-19T08:51:40.339Z,11.75
2019-05-19T08:52:43.735Z,11.75
2019-05-19T08:53:48.797Z,12.50
2019-05-19T08:54:52.586Z,14.00
2019-05-19T08:55:55.561Z,11.00
2019-05-19T08:57:16.159Z,10.25
2019-05-19T08:58:19.004Z,9.75
2019-05-19T08:59:22.461Z,10.50
2019-05-19T09:00:25.292Z,11.00
2019-05-19T09:01:32.400Z,10.75
2019-05-19T09:02:35.301Z,11.00
2019-05-19T09:03:39.255Z,9.75
2019-05-19T09:04:42.111Z,9.75
2019-05-19T09:05:49.888Z,11.00
2019-05-19T09:06:52.825Z,9.00
2019-05-19T09:07:56.209Z,11.00
2019-05-19T09:09:01.756Z,9.00
2019-05-19T09:10:05.682Z,8.50
2019-05-19T09:11:11.735Z,8.50
2019-05-19T09:12:15.196Z,9.50
2019-05-19T09:13:19.222Z,12.75
2019-05-19T09:14:22.585Z,9.25
2019-05-19T09:15:28.272Z,14.50
2019-05-19T09:16:33.309Z,12.25
2019-05-19T09:17:36.430Z,11.75
2019-05-19T09:18:42.582Z,9.00
2019-05-19T09:19:45.607Z,9.75
2019-05-19T09:20:57.865Z,11.25
2019-05-19T09:22:02.991Z,10.25
2019-05-19T09:23:06.591Z,10.25
2019-05-19T09:24:09.849Z,11.00
2019-05-19T09:25:13.473Z,9.25
2019-05-19T09:26:26.995Z,12.00
2019-05-19T09:27:22.221Z,10.00
2019-05-19T09:28:28.080Z,8.75
2019-05-19T09:29:36.950Z,9.50
2019-05-19T09:30:39.495Z,9.00
2019-05-19T09:31:42.960Z,9.00
2019-05-19T09:32:45.855Z,9.00
2019-05-19T09:33:49.658Z,8.50
2019-05-19T09:34:52.671Z,11.00
2019-05-19T09:35:57.653Z,9.00
2019-05-19T09:37:00.758Z,9.00
2019-05-19T09:38:10.445Z,10.75
2019-05-19T09:39:13.547Z,12.00
2019-05-19T09:40:26.139Z,11.50
2019-05-19T09:41:27.760Z,8.75
2019-05-19T09:42:36.694Z,10.00
2019-05-19T09:43:41.898Z,8.75
2019-05-19T09:44:45.560Z,10.75
2019-05-19T09:45:49.944Z,10.00
2019-05-19T09:46:54.499Z,9.75
2019-05-19T09:48:16.402Z,9.00
2019-05-19T09:49:35.819Z,8.00
2019-05-19T09:50:52.015Z,10.75
2019-05-19T09:51:55.811Z,9.25
2019-05-19T09:52:58.700Z,9.75
2019-05-19T09:54:05.061Z,11.00
2019-05-19T09:55:07.979Z,10.00
2019-05-19T09:56:12.471Z,9.50
2019-05-19T09:57:15.377Z,11.00
2019-05-19T09:58:20.087Z,9.75
2019-05-19T09:59:26.052Z,9.75
2019-05-19T10:00:30.204Z,10.00
2019-05-19T10:01:37.494Z,9.00
2019-05-19T10:02:40.936Z,10.00
2019-05-19T10:03:43.813Z,9.00
2019-05-19T10:04:47.193Z,9.50
2019-05-19T10:05:50.547Z,10.00
2019-05-19T10:06:56.863Z,11.00
2019-05-19T10:07:59.783Z,10.75
2019-05-19T10:09:04.079Z,11.00
2019-05-19T10:10:07.978Z,9.00
2019-05-19T10:11:19.090Z,11.00
2019-05-19T10:12:17.487Z,9.00
2019-05-19T10:13:22.001Z,9.75
2019-05-19T10:14:24.880Z,8.75
2019-05-19T10:15:28.284Z,9.00
2019-05-19T10:16:31.256Z,10.00
2019-05-19T10:17:37.359Z,9.75
2019-05-19T10:18:40.358Z,10.25
2019-05-19T10:19:44.278Z,8.75
2019-05-19T10:20:50.315Z,10.00
2019-05-19T10:21:52.379Z,11.25
2019-05-19T10:22:55.476Z,10.00
2019-05-19T10:24:02.966Z,10.00
2019-05-19T10:25:21.016Z,10.00
2019-05-19T10:26:17.249Z,9.00
2019-05-19T10:27:21.723Z,10.00
2019-05-19T10:28:25.391Z,9.00
2019-05-19T10:29:28.265Z,10.00
2019-05-19T10:42:53.338Z,10.25
2019-05-19T10:44:05.246Z,8.00
2019-05-19T10:45:09.161Z,9.00
2019-05-19T10:46:15.092Z,10.75
2019-05-19T10:47:18.199Z,9.00
2019-05-19T10:48:22.031Z,9.00
2019-05-19T10:49:24.860Z,10.00
2019-05-19T10:50:28.315Z,8.25
2019-05-19T10:51:31.846Z,8.00
2019-05-19T10:52:35.242Z,9.25
2019-05-19T10:53:38.181Z,9.50
2019-05-19T10:54:43.274Z,10.00
2019-05-19T10:55:46.606Z,9.00
2019-05-19T10:56:51.897Z,9.50
2019-05-19T10:57:55.010Z,9.50
2019-05-19T10:58:58.597Z,10.00
2019-05-19T11:00:04.730Z,10.00
2019-05-19T11:01:10.665Z,9.25
2019-05-19T11:02:19.716Z,9.25
2019-05-19T11:03:23.317Z,10.50
2019-05-19T11:04:26.382Z,8.50
2019-05-19T11:05:31.406Z,11.00
2019-05-19T11:06:34.437Z,8.50
2019-05-19T11:07:38.665Z,9.25
2019-05-19T11:08:44.296Z,10.00
2019-05-19T11:09:52.839Z,8.25
2019-05-19T11:11:02.168Z,9.00
2019-05-19T11:12:06.752Z,8.75
2019-05-19T11:13:19.765Z,9.00
2019-05-19T11:14:25.969Z,10.50
2019-05-19T11:15:32.035Z,8.25
2019-05-19T11:16:35.627Z,9.00
2019-05-19T11:17:41.912Z,8.50
2019-05-19T11:18:47.472Z,8.50
2019-05-19T11:19:54.578Z,8.00
2019-05-19T11:20:58.168Z,8.75
2019-05-19T11:22:01.271Z,9.00
2019-05-19T11:23:06.276Z,9.00
2019-05-19T11:24:16.812Z,9.00
2019-05-19T11:25:33.006Z,10.25
2019-05-19T11:26:29.186Z,11.00
2019-05-19T11:27:32.610Z,9.50
2019-05-19T11:28:35.463Z,8.25
2019-05-19T11:29:39.377Z,8.50
2019-05-19T11:30:42.888Z,9.00
2019-05-19T11:31:46.772Z,10.25
2019-05-19T11:32:49.636Z,9.00
2019-05-19T11:34:10.953Z,8.50
2019-05-19T11:35:16.579Z,9.25
2019-05-19T11:36:20.006Z,9.50
2019-05-19T11:37:24.945Z,9.00
2019-05-19T11:38:28.462Z,9.50
2019-05-19T11:39:34.307Z,8.25
2019-05-19T11:40:37.658Z,9.50
2019-05-19T11:41:42.224Z,11.50
2019-05-19T11:42:49.258Z,9.50
2019-05-19T11:43:52.639Z,7.50
2019-05-19T11:44:59.301Z,7.25
2019-05-19T11:46:02.344Z,5.75
2019-05-19T11:47:12.811Z,5.75
2019-05-19T11:48:20.020Z,7.00
2019-05-19T11:49:25.020Z,4.00
2019-05-19T11:50:28.074Z,5.50
2019-05-19T11:51:31.929Z,4.00
2019-05-19T11:52:46.714Z,4.00
2019-05-19T11:53:50.572Z,4.75
2019-05-19T11:54:55.753Z,4.75
2019-05-19T11:56:06.616Z,2.75
2019-05-19T11:57:07.500Z,4.25
2019-05-19T11:58:13.358Z,3.00
2019-05-19T11:59:17.412Z,4.75
2019-05-19T12:00:27.548Z,2.25
2019-05-19T12:01:25.805Z,3.50
2019-05-19T12:02:29.390Z,3.50
2019-05-19T12:03:33.614Z,3.00
2019-05-19T12:04:37.444Z,4.00
2019-05-19T12:05:43.157Z,2.50
2019-05-19T12:06:52.839Z,3.00
2019-05-19T12:07:55.711Z,3.00
2019-05-19T12:08:59.001Z,3.00
2019-05-19T12:10:04.386Z,2.25
2019-05-19T12:11:08.457Z,5.25
2019-05-19T12:12:11.469Z,6.75
2019-05-19T12:13:15.415Z,8.75
2019-05-19T12:14:21.305Z,10.00
2019-05-19T12:15:28.462Z,8.75
2019-05-19T12:16:34.573Z,5.25
2019-05-19T12:17:38.491Z,3.00
2019-05-19T12:18:41.317Z,5.00
2019-05-19T12:19:46.279Z,3.00
2019-05-19T12:20:51.998Z,2.00
2019-05-19T12:21:56.301Z,5.00
2019-05-19T12:23:02.655Z,3.50
2019-05-19T12:24:06.857Z,4.00
2019-05-19T12:25:10.122Z,4.50
2019-05-19T12:26:23.355Z,3.50
2019-05-19T12:27:19.269Z,5.00
2019-05-19T12:28:25.615Z,4.75
2019-05-19T12:29:30.238Z,6.75
2019-05-19T12:30:37.306Z,5.00
2019-05-19T12:31:46.721Z,5.25
2019-05-19T12:32:59.334Z,6.00
2019-05-19T12:34:04.030Z,6.00
2019-05-19T12:35:07.530Z,5.50
2019-05-19T12:36:12.335Z,5.50
2019-05-19T12:37:15.837Z,5.00
2019-05-19T12:38:20.366Z,5.00
2019-05-19T12:39:27.444Z,5.25
2019-05-19T12:40:33.279Z,5.00
2019-05-19T12:41:36.693Z,5.00
2019-05-19T12:42:40.047Z,5.00
2019-05-19T12:43:44.337Z,3.00
2019-05-19T12:44:52.352Z,5.25
2019-05-19T12:46:16.385Z,5.00
2019-05-19T12:47:19.372Z,6.00
2019-05-19T12:48:28.888Z,5.00
2019-05-19T12:50:02.409Z,4.50
2019-05-19T12:51:07.577Z,5.00
2019-05-19T12:52:13.923Z,5.00
2019-05-19T12:53:29.237Z,5.00
2019-05-19T12:54:33.127Z,4.75
2019-05-19T12:55:36.493Z,4.50
2019-05-19T12:56:42.452Z,5.25
2019-05-19T12:57:49.156Z,5.00
2019-05-19T12:58:54.240Z,5.00
2019-05-19T13:00:02.278Z,4.50
2019-05-19T13:01:08.241Z,5.00
2019-05-19T13:02:11.629Z,5.00
2019-05-19T13:03:18.665Z,5.00
2019-05-19T13:04:24.141Z,5.00
2019-05-19T13:05:28.031Z,5.00
2019-05-19T13:06:31.297Z,4.50
2019-05-19T13:08:58.257Z,4.75
2019-05-19T13:10:02.880Z,4.25
2019-05-19T13:11:20.236Z,4.00
2019-05-19T13:12:27.455Z,4.50
2019-05-19T13:13:31.306Z,4.25
2019-05-19T13:14:39.212Z,6.50
2019-05-19T13:15:45.454Z,7.00
2019-05-19T13:16:49.986Z,6.50
2019-05-19T13:17:54.620Z,6.50
2019-05-19T13:18:59.575Z,5.00
2019-05-19T13:20:14.169Z,5.00
2019-05-19T13:21:25.991Z,5.00
2019-05-19T13:22:25.444Z,6.00
2019-05-19T13:23:31.133Z,6.75
2019-05-19T13:24:34.236Z,6.00
2019-05-19T13:25:43.142Z,8.00
2019-05-19T13:26:55.992Z,7.75
2019-05-19T13:27:52.795Z,5.75
2019-05-19T13:28:56.579Z,7.00
2019-05-19T13:30:00.244Z,8.00
2019-05-19T13:31:06.344Z,8.00
2019-05-19T13:32:09.715Z,6.75
2019-05-19T13:33:14.842Z,6.75
2019-05-19T13:34:19.400Z,8.00
2019-05-19T13:35:22.535Z,6.25
2019-05-19T13:36:28.899Z,7.00
2019-05-19T13:37:32.032Z,7.25
2019-05-19T13:38:35.498Z,8.00
2019-05-19T13:39:41.170Z,8.00
2019-05-19T13:40:47.472Z,8.75
2019-05-19T13:41:57.231Z,7.50
2019-05-19T13:43:00.817Z,9.00
2019-05-19T13:44:04.282Z,8.75
2019-05-19T13:45:07.646Z,11.00
2019-05-19T13:46:16.936Z,8.25
2019-05-19T13:47:24.038Z,11.00
2019-05-19T13:48:27.275Z,11.50
2019-05-19T13:49:30.838Z,12.00
2019-05-19T13:50:33.697Z,10.50
2019-05-19T13:51:42.818Z,13.00
2019-05-19T13:52:45.964Z,11.25
2019-05-19T13:53:54.079Z,14.00
2019-05-19T13:54:57.393Z,12.00
2019-05-19T13:56:00.767Z,12.00
2019-05-19T13:57:12.323Z,11.25
2019-05-19T13:58:15.076Z,12.00
2019-05-19T13:59:15.536Z,11.00
2019-05-19T14:00:21.201Z,11.25
2019-05-19T14:01:28.439Z,10.00
2019-05-19T14:02:30.216Z,8.25
2019-05-19T14:03:33.451Z,11.25
2019-05-19T14:04:37.065Z,11.50
2019-05-19T14:05:40.062Z,12.00
2019-05-19T14:06:43.494Z,12.00
2019-05-19T14:07:51.838Z,10.00
2019-05-19T14:08:55.221Z,9.75
2019-05-19T14:09:59.933Z,10.50
2019-05-19T14:11:03.393Z,10.00
2019-05-19T14:12:06.340Z,9.00
2019-05-19T14:13:09.842Z,9.00
2019-05-19T14:14:14.501Z,9.75
2019-05-19T14:15:17.910Z,9.00
2019-05-19T14:16:20.797Z,10.00
2019-05-19T14:17:24.344Z,9.75
2019-05-19T14:18:27.300Z,10.00
2019-05-19T14:19:30.692Z,9.00
2019-05-19T14:20:34.113Z,7.50
2019-05-19T14:21:37.662Z,7.75
2019-05-19T14:22:40.476Z,8.50
2019-05-19T14:23:43.903Z,6.00
2019-05-19T14:24:49.930Z,7.00
2019-05-19T14:25:53.460Z,8.00
2019-05-19T14:26:59.795Z,7.75
2019-05-19T14:28:03.691Z,7.75
2019-05-19T14:29:09.383Z,8.00